Time,TemperatureF,DewpointF,PressureIn,WindDirection,WindDirectionDegrees,WindSpeedMPH,WindSpeedGustMPH,Humidity,HourlyPrecipIn,Conditions,Clouds,dailyrainin,SoftwareType,DateUTC
2013-07-26 00:05:00,61.0,53.0,30.02,WNW,295,0.0,0.0,75,0.00,,,0.00,weatherlink.com 1.10,2013-07-26 06:05:00,
2013-07-26 00:20:00,60.9,53.0,30.02,NNW,339,0.0,0.0,75,0.00,,,0.00,weatherlink.com 1.10,2013-07-26 06:20:00,
2013-07-26 00:35:00,60.5,53.0,30.02,NNW,339,0.0,0.0,76,0.00,,,0.00,weatherlink.com 1.10,2013-07-26 06:35:00,
2013-07-26 00:50:00,60.0,53.0,30.01,NNW,339,0.0,0.0,78,0.00,,,0.00,weatherlink.com 1.10,2013-07-26 06:50:00,
2013-07-26 01:05:00,59.5,53.0,30.02,NNW,339,0.0,0.0,79,0.00,,,0.00,weatherlink.com 1.10,2013-07-26 07:05:00,
2013-07-26 01:20:00,59.1,53.0,30.02,NNW,339,0.0,0.0,80,0.00,,,0.00,weatherlink.com 1.10,2013-07-26 07:20:00,
2013-07-26 01:35:00,58.8,53.0,30.02,NNW,340,0.0,0.0,80,0.00,,,0.00,weatherlink.com 1.10,2013-07-26 07:35:00,
2013-07-26 01:51:00,58.5,52.0,30.01,NNW,339,0.0,0.0,79,0.00,,,0.00,weatherlink.com 1.10,2013-07-26 07:51:00,
2013-07-26 02:06:00,58.2,52.0,30.01,NNW,340,0.0,0.0,80,0.00,,,0.00,weatherlink.com 1.10,2013-07-26 08:06:00,
2013-07-26 02:21:00,58.0,52.0,30.02,NNW,339,0.0,0.0,80,0.00,,,0.00,weatherlink.com 1.10,2013-07-26 08:21:00,
2013-07-26 03:06:00,57.0,52.0,30.02,NNW,339,0.0,0.0,83,0.00,,,0.00,weatherlink.com 1.10,2013-07-26 09:06:00,
2013-07-26 03:21:00,56.4,52.0,30.02,NNW,339,0.0,0.0,84,0.00,,,0.00,weatherlink.com 1.10,2013-07-26 09:21:00,
2013-07-26 03:36:00,56.1,52.0,30.02,NNW,339,0.0,1.0,86,0.00,,,0.00,weatherlink.com 1.10,2013-07-26 09:36:00,
2013-07-26 03:51:00,55.9,52.0,30.02,NNW,339,0.0,0.0,85,0.00,,,0.00,weatherlink.com 1.10,2013-07-26 09:51:00,
2013-07-26 04:06:00,55.5,51.0,30.02,NNW,339,0.0,0.0,86,0.00,,,0.00,weatherlink.com 1.10,2013-07-26 10:06:00,
2013-07-26 04:21:00,55.2,51.0,30.03,NNW,339,0.0,0.0,86,0.00,,,0.00,weatherlink.com 1.10,2013-07-26 10:21:00,
2013-07-26 04:36:00,55.0,51.0,30.02,NNW,339,0.0,0.0,86,0.00,,,0.00,weatherlink.com 1.10,2013-07-26 10:36:00,
2013-07-26 04:51:00,54.9,51.0,30.03,NNW,339,0.0,0.0,85,0.00,,,0.00,weatherlink.com 1.10,2013-07-26 10:51:00,
2013-07-26 05:21:00,54.6,50.0,30.03,NNW,339,0.0,0.0,85,0.00,,,0.00,weatherlink.com 1.10,2013-07-26 11:21:00,
2013-07-26 05:36:00,54.2,50.0,30.03,NNW,339,0.0,0.0,85,0.00,,,0.00,weatherlink.com 1.10,2013-07-26 11:36:00,
2013-07-26 05:51:00,53.7,50.0,30.03,NNW,339,0.0,0.0,86,0.00,,,0.00,weatherlink.com 1.10,2013-07-26 11:51:00,
2013-07-26 06:06:00,53.3,50.0,30.03,NNW,339,0.0,0.0,87,0.00,,,0.00,weatherlink.com 1.10,2013-07-26 12:06:00,
2013-07-26 06:21:00,53.2,50.0,30.03,NNW,339,0.0,1.0,88,0.00,,,0.00,weatherlink.com 1.10,2013-07-26 12:21:00,
2013-07-26 06:36:00,53.5,50.0,30.04,NNW,339,0.0,0.0,87,0.00,,,0.00,weatherlink.com 1.10,2013-07-26 12:36:00,
2013-07-26 06:51:00,55.3,51.0,30.04,NNW,339,0.0,0.0,85,0.00,,,0.00,weatherlink.com 1.10,2013-07-26 12:51:00,
2013-07-26 07:06:00,57.1,51.0,30.05,NNW,339,0.0,0.0,79,0.00,,,0.00,weatherlink.com 1.10,2013-07-26 13:06:00,
2013-07-26 07:36:00,59.9,52.0,30.05,NNW,339,0.0,0.0,76,0.00,,,0.00,weatherlink.com 1.10,2013-07-26 13:36:00,
2013-07-26 07:51:00,60.8,51.0,30.05,NNW,338,0.0,1.0,71,0.00,,,0.00,weatherlink.com 1.10,2013-07-26 13:51:00,
2013-07-26 08:07:00,62.2,52.0,30.05,NNW,338,0.0,1.0,69,0.00,,,0.00,weatherlink.com 1.10,2013-07-26 14:07:00,
2013-07-26 08:21:00,64.4,52.0,30.06,East,86,0.0,3.0,64,0.00,,,0.00,weatherlink.com 1.10,2013-07-26 14:21:00,
2013-07-26 08:36:00,65.4,51.0,30.06,NNE,33,1.0,3.0,61,0.00,,,0.00,weatherlink.com 1.10,2013-07-26 14:36:00,
2013-07-26 08:51:00,66.6,52.0,30.06,NE,40,0.0,3.0,60,0.00,,,0.00,weatherlink.com 1.10,2013-07-26 14:51:00,
2013-07-26 09:06:00,67.6,52.0,30.07,NE,40,1.0,3.0,57,0.00,,,0.00,weatherlink.com 1.10,2013-07-26 15:06:00,
2013-07-26 09:21:00,68.6,52.0,30.06,NE,39,0.0,5.0,56,0.00,,,0.00,weatherlink.com 1.10,2013-07-26 15:21:00,
2013-07-26 09:52:00,70.3,53.0,30.06,ENE,67,0.0,4.0,54,0.00,,,0.00,weatherlink.com 1.10,2013-07-26 15:52:00,
2013-07-26 10:07:00,71.1,52.0,30.05,ENE,59,1.0,4.0,51,0.00,,,0.00,weatherlink.com 1.10,2013-07-26 16:07:00,
2013-07-26 10:22:00,72.9,54.0,30.05,NE,53,0.0,2.0,52,0.00,,,0.00,weatherlink.com 1.10,2013-07-26 16:22:00,
2013-07-26 10:37:00,73.6,52.0,30.05,ENE,67,0.0,2.0,47,0.00,,,0.00,weatherlink.com 1.10,2013-07-26 16:37:00,
2013-07-26 10:52:00,74.2,53.0,30.05,SSW,196,0.0,4.0,48,0.00,,,0.00,weatherlink.com 1.10,2013-07-26 16:52:00,
2013-07-26 11:07:00,74.9,51.0,30.05,NE,53,0.0,5.0,44,0.00,,,0.00,weatherlink.com 1.10,2013-07-26 17:07:00,
2013-07-26 11:22:00,75.5,51.0,30.04,SSE,161,0.0,3.0,42,0.00,,,0.00,weatherlink.com 1.10,2013-07-26 17:22:00,
2013-07-26 11:37:00,76.7,51.0,30.04,SE,131,0.0,1.0,41,0.00,,,0.00,weatherlink.com 1.10,2013-07-26 17:37:00,
2013-07-26 11:52:00,78.3,51.0,30.04,ENE,74,0.0,4.0,39,0.00,,,0.00,weatherlink.com 1.10,2013-07-26 17:52:00,
2013-07-26 12:07:00,78.5,51.0,30.04,ESE,111,0.0,2.0,38,0.00,,,0.00,weatherlink.com 1.10,2013-07-26 18:07:00,
2013-07-26 12:22:00,80.0,50.0,30.03,ENE,69,1.0,4.0,35,0.00,,,0.00,weatherlink.com 1.10,2013-07-26 18:22:00,
2013-07-26 12:37:00,80.9,48.0,30.03,ENE,69,0.0,3.0,32,0.00,,,0.00,weatherlink.com 1.10,2013-07-26 18:37:00,
2013-07-26 12:52:00,81.2,51.0,30.03,ESE,122,2.0,3.0,35,0.00,,,0.00,weatherlink.com 1.10,2013-07-26 18:52:00,
2013-07-26 13:07:00,81.4,49.0,30.01,SW,229,0.0,4.0,32,0.00,,,0.00,weatherlink.com 1.10,2013-07-26 19:07:00,
2013-07-26 13:22:00,81.5,48.0,30.00,NNE,30,0.0,4.0,31,0.00,,,0.00,weatherlink.com 1.10,2013-07-26 19:22:00,
2013-07-26 13:37:00,82.0,47.0,30.00,East,88,0.0,3.0,29,0.00,,,0.00,weatherlink.com 1.10,2013-07-26 19:37:00,
2013-07-26 13:52:00,81.5,44.0,30.00,North,5,0.0,5.0,27,0.00,,,0.00,weatherlink.com 1.10,2013-07-26 19:52:00,
2013-07-26 14:07:00,81.0,47.0,30.00,North,349,0.0,5.0,30,0.00,,,0.00,weatherlink.com 1.10,2013-07-26 20:07:00,
2013-07-26 14:22:00,80.7,46.0,30.00,North,360,2.0,7.0,29,0.00,,,0.00,weatherlink.com 1.10,2013-07-26 20:22:00,
2013-07-26 14:37:00,81.8,46.0,29.99,NNE,28,0.0,7.0,28,0.00,,,0.00,weatherlink.com 1.10,2013-07-26 20:37:00,
2013-07-26 14:52:00,82.3,47.0,29.98,North,11,1.0,5.0,29,0.00,,,0.00,weatherlink.com 1.10,2013-07-26 20:52:00,
2013-07-26 15:08:00,81.7,45.0,29.97,WNW,299,1.0,7.0,27,0.00,,,0.00,weatherlink.com 1.10,2013-07-26 21:08:00,
2013-07-26 15:23:00,81.8,43.0,29.97,NW,313,0.0,6.0,25,0.00,,,0.00,weatherlink.com 1.10,2013-07-26 21:23:00,
2013-07-26 15:38:00,82.0,44.0,29.97,West,275,0.0,7.0,26,0.00,,,0.00,weatherlink.com 1.10,2013-07-26 21:38:00,
2013-07-26 15:53:00,82.9,45.0,29.96,West,266,0.0,5.0,26,0.00,,,0.00,weatherlink.com 1.10,2013-07-26 21:53:00,
2013-07-26 16:08:00,82.3,44.0,29.96,NNE,24,0.0,2.0,26,0.00,,,0.00,weatherlink.com 1.10,2013-07-26 22:08:00,
2013-07-26 16:23:00,82.0,45.0,29.96,WNW,283,0.0,2.0,27,0.00,,,0.00,weatherlink.com 1.10,2013-07-26 22:23:00,
2013-07-26 16:38:00,81.6,44.0,29.96,NW,310,0.0,1.0,27,0.00,,,0.00,weatherlink.com 1.10,2013-07-26 22:38:00,
2013-07-26 16:53:00,81.6,43.0,29.95,NE,43,1.0,5.0,26,0.00,,,0.00,weatherlink.com 1.10,2013-07-26 22:53:00,
2013-07-26 17:08:00,82.4,44.0,29.93,NE,38,1.0,6.0,26,0.00,,,0.00,weatherlink.com 1.10,2013-07-26 23:08:00,
2013-07-26 17:23:00,81.3,45.0,29.92,NE,40,2.0,5.0,28,0.00,,,0.00,weatherlink.com 1.10,2013-07-26 23:23:00,
2013-07-26 17:38:00,82.0,43.0,29.91,NNE,19,0.0,4.0,25,0.00,,,0.00,weatherlink.com 1.10,2013-07-26 23:38:00,
2013-07-26 17:53:00,82.4,46.0,29.91,ESE,109,2.0,4.0,28,0.00,,,0.00,weatherlink.com 1.10,2013-07-26 23:53:00,
2013-07-26 18:08:00,82.5,45.0,29.89,SE,140,0.0,1.0,27,0.00,,,0.00,weatherlink.com 1.10,2013-07-27 00:08:00,
2013-07-26 18:23:00,82.4,44.0,29.89,SE,143,0.0,2.0,26,0.00,,,0.00,weatherlink.com 1.10,2013-07-27 00:23:00,
2013-07-26 18:38:00,82.7,43.0,29.89,SE,142,0.0,1.0,25,0.00,,,0.00,weatherlink.com 1.10,2013-07-27 00:38:00,
2013-07-26 18:53:00,81.7,42.0,29.89,SE,142,0.0,2.0,24,0.00,,,0.00,weatherlink.com 1.10,2013-07-27 00:53:00,
2013-07-26 19:08:00,81.4,42.0,29.88,SE,142,0.0,0.0,25,0.00,,,0.00,weatherlink.com 1.10,2013-07-27 01:08:00,
2013-07-26 19:23:00,81.5,43.0,29.88,SE,142,0.0,0.0,26,0.00,,,0.00,weatherlink.com 1.10,2013-07-27 01:23:00,
2013-07-26 19:38:00,81.3,43.0,29.88,SE,142,0.0,0.0,26,0.00,,,0.00,weatherlink.com 1.10,2013-07-27 01:38:00,
2013-07-26 19:53:00,80.9,45.0,29.87,SE,142,0.0,0.0,28,0.00,,,0.00,weatherlink.com 1.10,2013-07-27 01:53:00,
2013-07-26 20:08:00,79.3,49.0,29.87,SE,142,0.0,0.0,34,0.00,,,0.00,weatherlink.com 1.10,2013-07-27 02:08:00,
2013-07-26 20:23:00,77.4,48.0,29.88,SE,142,0.0,0.0,36,0.00,,,0.00,weatherlink.com 1.10,2013-07-27 02:23:00,
2013-07-26 20:38:00,75.1,50.0,29.88,SE,142,0.0,0.0,41,0.00,,,0.00,weatherlink.com 1.10,2013-07-27 02:38:00,
2013-07-26 20:53:00,72.8,48.0,29.89,SE,142,0.0,0.0,41,0.00,,,0.00,weatherlink.com 1.10,2013-07-27 02:53:00,
2013-07-26 21:08:00,72.0,48.0,29.91,WNW,287,4.0,5.0,42,0.00,,,0.00,weatherlink.com 1.10,2013-07-27 03:08:00,
2013-07-26 21:23:00,69.9,48.0,29.92,NNW,348,2.0,13.0,46,0.00,,,0.00,weatherlink.com 1.10,2013-07-27 03:23:00,
2013-07-26 21:38:00,68.2,48.0,29.93,North,355,3.0,10.0,49,0.00,,,0.00,weatherlink.com 1.10,2013-07-27 03:38:00,
2013-07-26 21:53:00,66.8,47.0,29.94,WNW,298,2.0,7.0,49,0.00,,,0.00,weatherlink.com 1.10,2013-07-27 03:53:00,
2013-07-26 22:08:00,65.6,47.0,29.94,NW,307,0.0,5.0,52,0.00,,,0.00,weatherlink.com 1.10,2013-07-27 04:08:00,
2013-07-26 22:23:00,64.9,47.0,29.93,WNW,285,0.0,2.0,53,0.00,,,0.00,weatherlink.com 1.10,2013-07-27 04:23:00,
2013-07-26 22:38:00,64.3,48.0,29.92,North,355,0.0,1.0,55,0.00,,,0.00,weatherlink.com 1.10,2013-07-27 04:38:00,
2013-07-26 22:53:00,63.6,47.0,29.92,NW,326,0.0,1.0,56,0.00,,,0.00,weatherlink.com 1.10,2013-07-27 04:53:00,
2013-07-26 23:08:00,62.7,47.0,29.92,NW,326,0.0,0.0,58,0.00,,,0.00,weatherlink.com 1.10,2013-07-27 05:08:00,
2013-07-26 23:23:00,61.8,48.0,29.92,NW,326,0.0,0.0,60,0.00,,,0.00,weatherlink.com 1.10,2013-07-27 05:23:00,
2013-07-26 23:38:00,61.1,48.0,29.91,NW,326,0.0,0.0,63,0.00,,,0.00,weatherlink.com 1.10,2013-07-27 05:38:00,
2013-07-26 23:53:00,60.9,48.0,29.91,NW,326,0.0,0.0,63,0.00,,,0.00,weatherlink.com 1.10,2013-07-27 05:53:00,